Federal Rideau — VRWG7 — position and weather

sailwx.info

Track history (hours):
 
Tides and Currents Weather Stations Pressure Air Temp Water Temp Dewpoint Dewpoint Depression Visibility Wind Speed Wind Dir Waves Ship Positions

Federal Rideau

Last reported at 2014-Jul-17 03:25 UTC. Time now 2014-Jul-24 17:05 UTC.
Position N 46°30' W 084°37'.

Length 200 m; draft 5.9 m.

Type: Cargo ship. MMSI: 477734000.

Date/timePositionNaut miles runAvg speedWind from/ knotsBaromVisibWave heightAir tempDewpointWater temp
2014-Jul-17 03:25N 46°30' W 084°37'37 5.4
2014-Jul-16 20:33N 46°04' W 083°60'8 7.6
2014-Jul-16 19:33N 45°58' W 083°53'1212.5
2014-Jul-16 18:33N 45°51' W 084°08'1414.3
2014-Jul-16 17:33N 45°51' W 084°29'1414.0
2014-Jul-16 16:33N 45°49' W 084°49'1413.7
2014-Jul-16 15:34N 45°49' W 085°08'1312.6
2014-Jul-16 14:33N 45°38' W 085°17'1413.7
2014-Jul-16 13:33N 45°27' W 085°29'1413.6
2014-Jul-16 12:33N 45°16' W 085°41'1413.6
2014-Jul-16 11:34N 45°05' W 085°52'1313.2
2014-Jul-16 10:34N 44°57' W 086°06'1312.9
2014-Jul-16 09:33N 44°47' W 086°18'  
2014-Jul-13 05:06N 44°38' W 086°32'2012.7
2014-Jul-13 03:31N 44°57' W 086°24'1512.5
2014-Jul-13 02:19N 45°11' W 086°18'2812.8
2014-Jul-13 00:10N 45°38' W 086°08'812.2
2014-Jul-12 23:29N 45°44' W 085°59'1213.5
2014-Jul-12 22:33N 45°50' W 085°43'1313.0
2014-Jul-12 21:33N 45°53' W 085°25'1413.7
2014-Jul-12 20:33N 45°51' W 085°06'1313.3
2014-Jul-12 19:33N 45°49' W 084°47'1312.6
2014-Jul-12 18:33N 45°44' W 084°31'1110.7
2014-Jul-12 17:33N 45°41' W 084°16'  
Track history (hours):
 
Tides and Currents Weather Stations Pressure Air Temp Water Temp Dewpoint Dewpoint Depression Visibility Wind Speed Wind Dir Waves Ship Positions

Federal Rideau

Last reported at 2014-Jul-17 03:25 UTC. Time now 2014-Jul-24 17:05 UTC.
Position N 46°30' W 084°37'.

Length 200 m; draft 5.9 m.

Type: Cargo ship. MMSI: 477734000.

Date/timePositionNaut miles runAvg speedWind from/ knotsBaromVisibWave heightAir tempDewpointWater temp
2014-Jul-17 03:25N 46°30' W 084°37'37 5.4
2014-Jul-16 20:33N 46°04' W 083°60'8 7.6
2014-Jul-16 19:33N 45°58' W 083°53'1212.5
2014-Jul-16 18:33N 45°51' W 084°08'1414.3
2014-Jul-16 17:33N 45°51' W 084°29'1414.0
2014-Jul-16 16:33N 45°49' W 084°49'1413.7
2014-Jul-16 15:34N 45°49' W 085°08'1312.6
2014-Jul-16 14:33N 45°38' W 085°17'1413.7
2014-Jul-16 13:33N 45°27' W 085°29'1413.6
2014-Jul-16 12:33N 45°16' W 085°41'1413.6
2014-Jul-16 11:34N 45°05' W 085°52'1313.2
2014-Jul-16 10:34N 44°57' W 086°06'1312.9
2014-Jul-16 09:33N 44°47' W 086°18'  
2014-Jul-13 05:06N 44°38' W 086°32'2012.7
2014-Jul-13 03:31N 44°57' W 086°24'1512.5
2014-Jul-13 02:19N 45°11' W 086°18'2812.8
2014-Jul-13 00:10N 45°38' W 086°08'812.2
2014-Jul-12 23:29N 45°44' W 085°59'1213.5
2014-Jul-12 22:33N 45°50' W 085°43'1313.0
2014-Jul-12 21:33N 45°53' W 085°25'1413.7
2014-Jul-12 20:33N 45°51' W 085°06'1313.3
2014-Jul-12 19:33N 45°49' W 084°47'1312.6
2014-Jul-12 18:33N 45°44' W 084°31'1110.7
2014-Jul-12 17:33N 45°41' W 084°16'  

Dump ship's entire track history